createdAt,value
2022-09-23T00:00:05.207Z,99779.22
2022-09-23T00:00:17.205Z,99778.34
2022-09-23T00:00:29.343Z,99773.09
2022-09-23T00:00:45.728Z,99773.03
2022-09-23T00:01:03.127Z,99762.72
2022-09-23T00:01:15.251Z,99774.09
2022-09-23T00:01:27.484Z,99769.16
2022-09-23T00:01:39.462Z,99774.31
2022-09-23T00:01:51.470Z,99772.59
2022-09-23T00:02:03.608Z,99775.25
2022-09-23T00:02:16.700Z,99772.59
2022-09-23T00:02:28.705Z,99777.84
2022-09-23T00:02:40.772Z,99777.81
2022-09-23T00:02:52.800Z,99771.75
2022-09-23T00:03:05.048Z,99770.00
2022-09-23T00:03:16.991Z,99771.72
2022-09-23T00:03:30.635Z,99768.13
2022-09-23T00:03:46.816Z,99775.94
2022-09-23T00:04:00.028Z,99776.78
2022-09-23T00:04:11.979Z,99768.97
2022-09-23T00:04:23.926Z,99772.38
2022-09-23T00:04:35.902Z,99773.22
2022-09-23T00:04:47.797Z,99769.78
2022-09-23T00:04:59.704Z,99774.16
2022-09-23T00:05:11.602Z,99774.25
2022-09-23T00:05:23.536Z,99771.63
2022-09-23T00:05:35.658Z,99768.22
2022-09-23T00:05:58.589Z,99766.34
2022-09-23T00:06:13.473Z,99768.97
2022-09-23T00:06:27.972Z,99768.31
2022-09-23T00:06:40.060Z,99772.88
2022-09-23T00:06:52.078Z,99772.78
2022-09-23T00:07:04.044Z,99768.44
2022-09-23T00:07:16.313Z,99772.78
2022-09-23T00:07:28.220Z,99771.84
2022-09-23T00:07:40.159Z,99777.06
2022-09-23T00:07:52.122Z,99778.78
2022-09-23T00:08:08.095Z,99772.78
2022-09-23T00:08:20.045Z,99771.84
2022-09-23T00:08:32.297Z,99770.91
2022-09-23T00:08:44.863Z,99770.78
2022-09-23T00:08:56.755Z,99766.44
2022-09-23T00:09:08.643Z,99774.19
2022-09-23T00:09:20.528Z,99768.09
2022-09-23T00:09:32.565Z,99769.72
2022-09-23T00:09:44.446Z,99772.34
2022-09-23T00:09:56.398Z,99773.22
2022-09-23T00:10:08.749Z,99772.38
2022-09-23T00:10:21.594Z,99769.81
2022-09-23T00:10:37.257Z,99776.84
2022-09-23T00:10:49.162Z,99770.00
2022-09-23T00:11:07.081Z,99775.19
2022-09-23T00:11:22.094Z,99776.97
2022-09-23T00:11:34.335Z,99778.66
2022-09-23T00:11:46.211Z,99768.22
2022-09-23T00:11:58.333Z,99773.41
2022-09-23T00:12:10.415Z,99773.56
2022-09-23T00:12:22.386Z,99776.13
2022-09-23T00:12:34.258Z,99772.66
2022-09-23T00:12:46.160Z,99773.56
2022-09-23T00:12:58.771Z,99769.19
2022-09-23T00:13:10.703Z,99774.47
2022-09-23T00:13:24.393Z,99766.66
2022-09-23T00:13:37.243Z,99770.22
2022-09-23T00:13:52.998Z,99768.41
2022-09-23T00:14:04.942Z,99773.56
2022-09-23T00:14:17.503Z,99768.31
2022-09-23T00:14:29.430Z,99772.72
2022-09-23T00:14:41.322Z,99766.78
2022-09-23T00:14:53.303Z,99766.88
2022-09-23T00:15:05.656Z,99768.66
2022-09-23T00:15:18.006Z,99765.22
2022-09-23T00:15:31.100Z,99765.19
2022-09-23T00:15:43.063Z,99772.06
2022-09-23T00:15:54.958Z,99768.88
2022-09-23T00:16:10.486Z,99770.16
2022-09-23T00:16:25.699Z,99766.63
2022-09-23T00:16:38.197Z,99762.31
2022-09-23T00:16:50.351Z,99769.22
2022-09-23T00:17:02.290Z,99770.03
2022-09-23T00:17:14.284Z,99763.06
2022-09-23T00:17:27.173Z,99768.13
2022-09-23T00:17:40.318Z,99767.25
2022-09-23T00:17:52.707Z,99768.13
2022-09-23T00:18:04.633Z,99763.81
2022-09-23T00:18:17.856Z,99766.31
2022-09-23T00:18:29.731Z,99766.28
2022-09-23T00:18:42.184Z,99763.59
2022-09-23T00:18:54.765Z,99765.28
2022-09-23T00:19:06.696Z,99761.78
2022-09-23T00:19:18.598Z,99765.28
2022-09-23T00:19:30.462Z,99765.34
2022-09-23T00:19:42.556Z,99765.41
2022-09-23T00:19:55.351Z,99763.63
2022-09-23T00:20:09.280Z,99755.19
2022-09-23T00:20:21.205Z,99764.72
2022-09-23T00:20:35.157Z,99760.41
2022-09-23T00:20:47.310Z,99770.81
2022-09-23T00:21:04.579Z,99765.69
2022-09-23T00:21:17.313Z,99763.13
2022-09-23T00:21:29.423Z,99764.06
2022-09-23T00:21:42.500Z,99769.31
2022-09-23T00:21:56.661Z,99765.91
2022-09-23T00:22:08.790Z,99765.03
2022-09-23T00:22:21.223Z,99762.34
2022-09-23T00:22:33.232Z,99767.63
2022-09-23T00:22:45.596Z,99765.81
2022-09-23T00:22:57.719Z,99767.50
2022-09-23T00:23:09.652Z,99764.09
2022-09-23T00:23:21.552Z,99764.22
2022-09-23T00:23:34.203Z,99765.91
2022-09-23T00:23:46.232Z,99770.22
2022-09-23T00:23:58.590Z,99770.28
2022-09-23T00:24:10.528Z,99764.22
2022-09-23T00:24:23.463Z,99765.06
2022-09-23T00:24:35.367Z,99765.13
2022-09-23T00:24:47.387Z,99766.03
2022-09-23T00:24:59.268Z,99764.22
2022-09-23T00:25:11.936Z,99767.63
2022-09-23T00:25:23.804Z,99763.25
2022-09-23T00:25:35.675Z,99764.09
2022-09-23T00:25:59.341Z,99764.91
2022-09-23T00:26:15.617Z,99770.06
2022-09-23T00:26:27.813Z,99763.13
2022-09-23T00:26:39.779Z,99763.13
2022-09-23T00:26:51.665Z,99767.63
2022-09-23T00:27:03.744Z,99768.63
2022-09-23T00:27:16.018Z,99765.16
2022-09-23T00:27:28.991Z,99759.16
2022-09-23T00:27:41.911Z,99761.84
2022-09-23T00:27:53.993Z,99759.22
2022-09-23T00:28:05.933Z,99759.22
2022-09-23T00:28:17.808Z,99757.50
2022-09-23T00:28:30.609Z,99767.94
2022-09-23T00:28:43.125Z,99759.22
2022-09-23T00:28:55.008Z,99761.03
2022-09-23T00:29:06.924Z,99762.69
2022-09-23T00:29:18.824Z,99764.44
2022-09-23T00:29:31.620Z,99764.44
2022-09-23T00:29:43.550Z,99766.25
2022-09-23T00:29:55.500Z,99767.94
2022-09-23T00:30:09.585Z,99761.88
2022-09-23T00:30:23.384Z,99762.72
2022-09-23T00:30:35.444Z,99764.53
2022-09-23T00:30:47.412Z,99768.88
2022-09-23T00:31:10.627Z,99762.81
2022-09-23T00:31:25.316Z,99769.72
2022-09-23T00:31:37.197Z,99767.94
2022-09-23T00:31:49.175Z,99771.38
2022-09-23T00:32:01.253Z,99763.56
2022-09-23T00:32:13.341Z,99766.13
2022-09-23T00:32:25.669Z,99763.56
2022-09-23T00:32:38.054Z,99767.16
2022-09-23T00:32:49.945Z,99765.41
2022-09-23T00:33:01.807Z,99769.72
2022-09-23T00:33:13.740Z,99768.00
2022-09-23T00:33:25.611Z,99768.88
2022-09-23T00:33:37.946Z,99765.41
2022-09-23T00:33:59.282Z,99758.56
2022-09-23T00:34:11.692Z,99760.22
2022-09-23T00:34:23.580Z,99761.88
2022-09-23T00:34:35.437Z,99760.91
2022-09-23T00:34:47.910Z,99756.72
2022-09-23T00:35:00.035Z,99760.28
2022-09-23T00:35:11.934Z,99762.09
2022-09-23T00:35:23.809Z,99763.81
2022-09-23T00:35:35.704Z,99769.94
2022-09-23T00:35:47.730Z,99761.34
2022-09-23T00:36:04.504Z,99769.22
2022-09-23T00:36:16.405Z,99763.13
2022-09-23T00:36:29.521Z,99760.53
2022-09-23T00:36:42.795Z,99766.59
2022-09-23T00:36:54.650Z,99769.13
2022-09-23T00:37:06.568Z,99762.19
2022-09-23T00:37:19.669Z,99763.88
2022-09-23T00:37:31.716Z,99761.22
2022-09-23T00:37:43.598Z,99767.28
2022-09-23T00:37:56.120Z,99765.56
2022-09-23T00:38:08.060Z,99763.88
2022-09-23T00:38:19.947Z,99763.94
2022-09-23T00:38:33.829Z,99763.88
2022-09-23T00:38:46.145Z,99756.97
2022-09-23T00:38:58.361Z,99773.44
2022-09-23T00:39:10.288Z,99764.81
2022-09-23T00:39:22.972Z,99764.03
2022-09-23T00:39:34.834Z,99765.03
2022-09-23T00:39:46.867Z,99766.84
2022-09-23T00:39:59.647Z,99764.19
2022-09-23T00:40:13.062Z,99765.94
2022-09-23T00:40:26.027Z,99765.03
2022-09-23T00:40:43.568Z,99761.53
2022-09-23T00:40:55.793Z,99761.53
2022-09-23T00:41:07.859Z,99758.13
2022-09-23T00:41:19.991Z,99764.19
2022-09-23T00:41:32.665Z,99758.19
2022-09-23T00:41:44.563Z,99758.97
2022-09-23T00:41:56.462Z,99764.22
2022-09-23T00:42:18.540Z,99765.09
2022-09-23T00:42:30.521Z,99765.03
2022-09-23T00:42:51.924Z,99761.75
2022-09-23T00:43:04.646Z,99765.16
2022-09-23T00:43:17.182Z,99766.00
2022-09-23T00:43:49.945Z,99761.75
2022-09-23T00:44:23.221Z,99765.22
2022-09-23T00:44:48.104Z,99761.75
2022-09-23T00:45:00.831Z,99759.09
2022-09-23T00:45:12.884Z,99753.91
2022-09-23T00:45:24.770Z,99759.81
2022-09-23T00:45:36.717Z,99756.34
2022-09-23T00:45:51.059Z,99763.34
2022-09-23T00:46:03.630Z,99756.44
2022-09-23T00:46:23.200Z,99753.22
2022-09-23T00:46:39.964Z,99758.53
2022-09-23T00:46:52.242Z,99757.59
2022-09-23T00:47:04.325Z,99754.94
2022-09-23T00:47:19.387Z,99757.50
2022-09-23T00:47:33.625Z,99760.91
2022-09-23T00:47:52.302Z,99760.94
2022-09-23T00:48:05.003Z,99760.03
2022-09-23T00:48:20.300Z,99756.63
2022-09-23T00:48:32.302Z,99753.13
2022-09-23T00:48:45.649Z,99760.91
2022-09-23T00:49:07.213Z,99755.59
2022-09-23T00:49:28.353Z,99753.03
2022-09-23T00:49:40.535Z,99755.78
2022-09-23T00:50:09.877Z,99756.53
2022-09-23T00:50:35.039Z,99752.53
2022-09-23T00:50:51.021Z,99765.56
2022-09-23T00:51:04.691Z,99754.22
2022-09-23T00:51:21.291Z,99755.88
2022-09-23T00:51:38.554Z,99750.59
2022-09-23T00:51:57.428Z,99750.53
2022-09-23T00:52:15.368Z,99753.19
2022-09-23T00:52:28.330Z,99756.28
2022-09-23T00:52:40.545Z,99762.75
2022-09-23T00:52:56.703Z,99756.72
2022-09-23T00:53:12.419Z,99754.03
2022-09-23T00:53:26.639Z,99766.03
2022-09-23T00:53:39.719Z,99759.94
2022-09-23T00:53:52.653Z,99759.84
2022-09-23T00:54:06.220Z,99754.63
2022-09-23T00:54:18.691Z,99755.53
2022-09-23T00:54:30.971Z,99757.22
2022-09-23T00:54:43.460Z,99759.78
2022-09-23T00:54:57.592Z,99761.63
2022-09-23T00:55:15.882Z,99758.28
2022-09-23T00:55:34.537Z,99761.63
2022-09-23T00:55:54.392Z,99762.44
2022-09-23T00:56:10.132Z,99753.81
2022-09-23T00:56:24.127Z,99754.63
2022-09-23T00:56:38.864Z,99758.94
2022-09-23T00:56:51.275Z,99756.38
2022-09-23T00:57:05.597Z,99761.56
2022-09-23T00:57:18.234Z,99757.06
2022-09-23T00:57:31.169Z,99755.78
2022-09-23T00:57:44.626Z,99750.44
2022-09-23T00:57:59.114Z,99754.78
2022-09-23T00:58:15.536Z,99753.06
2022-09-23T00:58:31.583Z,99750.34
2022-09-23T00:58:45.341Z,99750.72
2022-09-23T00:58:57.326Z,99756.78
2022-09-23T00:59:10.682Z,99751.59
2022-09-23T00:59:24.333Z,99751.50
2022-09-23T00:59:37.094Z,99752.22
2022-09-23T00:59:50.858Z,99748.66
2022-09-23T01:00:04.406Z,99757.34
2022-09-23T01:00:16.399Z,99750.63
2022-09-23T01:00:28.697Z,99747.16
2022-09-23T01:00:42.049Z,99758.28
2022-09-23T01:00:55.497Z,99752.16
2022-09-23T01:01:07.933Z,99754.66
2022-09-23T01:01:21.120Z,99750.28
2022-09-23T01:01:33.166Z,99753.88
2022-09-23T01:01:46.085Z,99750.91
2022-09-23T01:02:00.227Z,99754.41
2022-09-23T01:02:14.223Z,99752.50
2022-09-23T01:02:28.107Z,99754.19
2022-09-23T01:02:40.160Z,99747.22
2022-09-23T01:02:52.737Z,99751.59
2022-09-23T01:03:06.625Z,99754.97
2022-09-23T01:03:19.568Z,99752.34
2022-09-23T01:03:32.011Z,99754.88
2022-09-23T01:03:45.423Z,99753.94
2022-09-23T01:03:58.335Z,99752.16
2022-09-23T01:04:10.256Z,99745.88
2022-09-23T01:04:24.451Z,99745.88
2022-09-23T01:04:36.602Z,99753.63
2022-09-23T01:04:50.763Z,99746.75
2022-09-23T01:05:06.112Z,99745.03
2022-09-23T01:05:19.273Z,99746.75
2022-09-23T01:05:33.455Z,99748.59
2022-09-23T01:05:46.888Z,99753.00
2022-09-23T01:05:59.559Z,99755.75
2022-09-23T01:06:12.964Z,99754.81
2022-09-23T01:06:25.247Z,99750.53
2022-09-23T01:06:37.232Z,99748.75
2022-09-23T01:06:49.362Z,99748.75
2022-09-23T01:07:01.253Z,99750.44
2022-09-23T01:07:13.632Z,99754.66
2022-09-23T01:07:25.518Z,99748.88
2022-09-23T01:07:37.493Z,99752.47
2022-09-23T01:07:50.003Z,99745.44
2022-09-23T01:08:04.756Z,99751.50
2022-09-23T01:08:17.516Z,99747.16
2022-09-23T01:08:29.755Z,99746.22
2022-09-23T01:08:45.892Z,99747.16
2022-09-23T01:08:57.775Z,99748.81
2022-09-23T01:09:09.682Z,99751.44
2022-09-23T01:09:22.961Z,99752.28
2022-09-23T01:09:35.308Z,99750.53
2022-09-23T01:09:48.591Z,99748.00
2022-09-23T01:10:01.811Z,99738.44
2022-09-23T01:10:16.795Z,99745.34
2022-09-23T01:10:36.988Z,99743.63
2022-09-23T01:10:48.813Z,99741.03
2022-09-23T01:11:18.987Z,99745.22
2022-09-23T01:11:48.313Z,99744.09
2022-09-23T01:12:12.500Z,99745.81
2022-09-23T01:12:42.701Z,99742.25
2022-09-23T01:13:42.571Z,99741.69
2022-09-23T01:14:06.639Z,99742.59
2022-09-23T01:14:34.300Z,99754.69
2022-09-23T01:14:57.951Z,99740.69
2022-09-23T01:15:24.619Z,99738.81
2022-09-23T01:15:45.795Z,99740.41
2022-09-23T01:15:57.617Z,99743.09
2022-09-23T01:16:15.998Z,99742.31
2022-09-23T01:16:38.004Z,99739.69
2022-09-23T01:17:04.389Z,99741.47
2022-09-23T01:17:29.438Z,99744.28
2022-09-23T01:17:50.336Z,99739.09
2022-09-23T01:18:21.107Z,99744.41
2022-09-23T01:18:35.645Z,99746.91
2022-09-23T01:19:15.204Z,99743.00
2022-09-23T01:19:36.168Z,99742.69
2022-09-23T01:20:27.913Z,99730.59
2022-09-23T01:20:42.428Z,99742.69
2022-09-23T01:21:33.268Z,99740.91
2022-09-23T01:21:58.367Z,99744.28
2022-09-23T01:22:19.470Z,99741.81
2022-09-23T01:22:51.546Z,99740.84
2022-09-23T01:23:22.033Z,99737.69
2022-09-23T01:23:55.446Z,99742.06
2022-09-23T01:24:22.999Z,99742.88
2022-09-23T01:24:51.251Z,99742.03
2022-09-23T01:25:08.860Z,99741.09
2022-09-23T01:25:48.511Z,99739.41
2022-09-23T01:26:06.228Z,99738.47
2022-09-23T01:26:39.511Z,99738.44
2022-09-23T01:27:22.312Z,99738.63
2022-09-23T01:27:58.762Z,99738.63
2022-09-23T01:28:35.100Z,99744.88
2022-09-23T01:29:15.594Z,99735.44
2022-09-23T01:30:06.776Z,99744.09
2022-09-23T01:30:47.569Z,99743.63
2022-09-23T01:31:08.267Z,99741.16
2022-09-23T01:31:31.957Z,99745.34
2022-09-23T01:31:51.300Z,99739.25
2022-09-23T01:32:37.820Z,99748.88
2022-09-23T01:33:20.021Z,99742.75
2022-09-23T01:33:53.079Z,99741.00
2022-09-23T01:34:32.931Z,99737.66
2022-09-23T01:34:47.710Z,99744.53
2022-09-23T01:35:04.684Z,99749.78
2022-09-23T01:35:38.465Z,99743.63
2022-09-23T01:36:04.259Z,99747.38
2022-09-23T01:36:27.980Z,99741.41
2022-09-23T01:36:51.052Z,99743.03
2022-09-23T01:37:31.723Z,99738.84
2022-09-23T01:38:09.543Z,99741.78
2022-09-23T01:38:32.731Z,99738.31
2022-09-23T01:39:08.628Z,99744.31
2022-09-23T01:39:37.889Z,99740.78
2022-09-23T01:40:11.365Z,99742.34
2022-09-23T01:40:42.512Z,99741.44
2022-09-23T01:41:04.489Z,99735.91
2022-09-23T01:41:37.521Z,99734.03
2022-09-23T01:42:39.473Z,99740.22
2022-09-23T01:43:04.453Z,99733.47
2022-09-23T01:43:36.192Z,99736.06
2022-09-23T01:43:53.173Z,99736.31
2022-09-23T01:44:10.154Z,99740.56
2022-09-23T01:44:48.090Z,99732.66
2022-09-23T01:45:08.983Z,99736.19
2022-09-23T01:45:43.398Z,99734.47
2022-09-23T01:45:59.797Z,99737.88
2022-09-23T01:46:23.184Z,99727.31
2022-09-23T01:46:51.571Z,99725.75
2022-09-23T01:47:15.289Z,99729.34
2022-09-23T01:47:30.497Z,99726.84
2022-09-23T01:47:51.651Z,99734.03
2022-09-23T01:48:13.885Z,99731.66
2022-09-23T01:48:46.512Z,99734.94
2022-09-23T01:49:06.791Z,99726.94
2022-09-23T01:49:34.408Z,99730.16
2022-09-23T01:49:53.924Z,99729.44
2022-09-23T01:50:28.705Z,99726.16
2022-09-23T01:50:56.258Z,99724.25
2022-09-23T01:51:19.027Z,99730.16
2022-09-23T01:51:35.553Z,99729.16
2022-09-23T01:51:59.908Z,99724.72
2022-09-23T01:52:17.579Z,99723.00
2022-09-23T01:52:40.283Z,99723.13
2022-09-23T01:52:54.967Z,99727.47
2022-09-23T01:53:14.674Z,99726.88
2022-09-23T01:53:49.441Z,99722.75
2022-09-23T01:54:15.853Z,99724.31
2022-09-23T01:54:35.692Z,99729.34
2022-09-23T01:54:56.563Z,99723.50
2022-09-23T01:55:20.691Z,99724.66
2022-09-23T01:55:38.300Z,99727.28
2022-09-23T01:55:58.932Z,99722.06
2022-09-23T01:56:17.739Z,99726.63
2022-09-23T01:56:38.501Z,99720.41
2022-09-23T01:57:01.581Z,99723.69
2022-09-23T01:57:27.202Z,99723.56
2022-09-23T01:57:44.813Z,99717.38
2022-09-23T01:58:19.466Z,99724.31
2022-09-23T01:58:55.897Z,99720.00
2022-09-23T01:59:21.470Z,99719.97
2022-09-23T01:59:53.498Z,99714.59
2022-09-23T02:00:11.628Z,99723.28
2022-09-23T02:00:24.512Z,99719.72
2022-09-23T02:00:41.384Z,99717.97
2022-09-23T02:00:59.369Z,99714.50
2022-09-23T02:01:23.385Z,99707.56
2022-09-23T02:01:41.295Z,99711.03
2022-09-23T02:02:06.193Z,99714.53
2022-09-23T02:02:28.961Z,99720.69
2022-09-23T02:02:56.235Z,99715.47
2022-09-23T02:03:15.291Z,99715.47
2022-09-23T02:03:48.385Z,99717.16
2022-09-23T02:04:08.730Z,99714.75
2022-09-23T02:04:39.532Z,99710.53
2022-09-23T02:05:11.040Z,99711.34
2022-09-23T02:05:25.928Z,99712.22
2022-09-23T02:05:43.480Z,99711.31
2022-09-23T02:06:05.149Z,99716.47
2022-09-23T02:06:23.167Z,99718.31
2022-09-23T02:06:51.195Z,99712.41
2022-09-23T02:07:10.629Z,99712.00
2022-09-23T02:07:29.705Z,99717.59
2022-09-23T02:07:50.203Z,99713.34
2022-09-23T02:08:17.667Z,99707.25
2022-09-23T02:08:35.609Z,99717.63
2022-09-23T02:08:56.454Z,99709.88
2022-09-23T02:09:15.117Z,99716.03
2022-09-23T02:09:35.495Z,99714.19
2022-09-23T02:09:57.821Z,99712.22
2022-09-23T02:10:19.779Z,99707.81
2022-09-23T02:10:37.337Z,99703.81
2022-09-23T02:10:56.382Z,99711.56
2022-09-23T02:11:15.955Z,99713.19
2022-09-23T02:11:30.871Z,99710.59
2022-09-23T02:11:48.059Z,99712.38
2022-09-23T02:12:06.015Z,99712.38
2022-09-23T02:12:20.488Z,99709.66
2022-09-23T02:12:38.339Z,99712.13
2022-09-23T02:12:54.820Z,99713.91
2022-09-23T02:13:15.584Z,99715.03
2022-09-23T02:13:32.503Z,99715.28
2022-09-23T02:13:50.969Z,99712.69
2022-09-23T02:14:06.804Z,99711.78
2022-09-23T02:14:24.550Z,99710.00
2022-09-23T02:14:44.320Z,99712.47
2022-09-23T02:15:29.032Z,99711.44
2022-09-23T02:15:50.435Z,99718.25
2022-09-23T02:16:09.499Z,99718.25
2022-09-23T02:16:30.181Z,99717.41
2022-09-23T02:16:47.446Z,99712.09
2022-09-23T02:17:08.689Z,99713.81
2022-09-23T02:17:34.189Z,99713.00
2022-09-23T02:17:52.168Z,99715.69
2022-09-23T02:18:13.175Z,99714.78
2022-09-23T02:18:34.045Z,99711.22
2022-09-23T02:18:53.225Z,99711.25
2022-09-23T02:19:13.228Z,99717.22
2022-09-23T02:19:33.813Z,99714.94
2022-09-23T02:19:50.504Z,99714.03
2022-09-23T02:20:06.868Z,99719.97
2022-09-23T02:20:39.497Z,99716.47
2022-09-23T02:20:55.730Z,99717.13
2022-09-23T02:21:09.494Z,99711.72
2022-09-23T02:21:27.409Z,99719.56
2022-09-23T02:21:52.752Z,99718.53
2022-09-23T02:22:23.652Z,99722.56
2022-09-23T02:22:56.809Z,99721.59
2022-09-23T02:23:13.078Z,99719.81
2022-09-23T02:23:31.911Z,99719.16
2022-09-23T02:23:51.308Z,99727.81
2022-09-23T02:24:12.711Z,99723.44
2022-09-23T02:24:34.543Z,99716.56
2022-09-23T02:24:46.682Z,99724.19
2022-09-23T02:24:58.797Z,99724.22
2022-09-23T02:25:12.494Z,99719.88
2022-09-23T02:25:35.682Z,99722.63
2022-09-23T02:25:56.482Z,99718.25
2022-09-23T02:26:19.596Z,99719.97
2022-09-23T02:26:49.748Z,99725.22
2022-09-23T02:27:19.767Z,99715.50
2022-09-23T02:27:50.452Z,99721.63
2022-09-23T02:28:22.544Z,99721.50
2022-09-23T02:28:53.419Z,99710.88
2022-09-23T02:29:42.751Z,99717.94
2022-09-23T02:30:09.420Z,99721.47
2022-09-23T02:30:27.147Z,99711.81
2022-09-23T02:30:49.311Z,99717.72
2022-09-23T02:31:14.711Z,99713.44
2022-09-23T02:32:00.141Z,99713.34
2022-09-23T02:32:25.063Z,99715.91
2022-09-23T02:32:55.539Z,99712.41
2022-09-23T02:33:26.454Z,99714.34
2022-09-23T02:33:55.389Z,99716.88
2022-09-23T02:34:32.050Z,99712.41
2022-09-23T02:35:10.066Z,99712.00
2022-09-23T02:35:32.767Z,99708.41
2022-09-23T02:36:15.135Z,99710.84
2022-09-23T02:36:36.863Z,99709.09
2022-09-23T02:36:53.069Z,99710.75
2022-09-23T02:37:11.641Z,99714.97
2022-09-23T02:37:43.556Z,99715.72
2022-09-23T02:38:13.413Z,99715.06
2022-09-23T02:38:36.071Z,99714.88
2022-09-23T02:39:00.539Z,99703.56
2022-09-23T02:39:14.370Z,99704.44
2022-09-23T02:39:36.718Z,99710.53
2022-09-23T02:40:00.577Z,99704.56
2022-09-23T02:40:37.989Z,99713.09
2022-09-23T02:41:04.587Z,99708.75
2022-09-23T02:41:32.432Z,99708.69
2022-09-23T02:42:10.055Z,99712.09
2022-09-23T02:42:30.612Z,99701.84
2022-09-23T02:42:47.184Z,99707.91
2022-09-23T02:43:11.348Z,99704.38
2022-09-23T02:43:42.798Z,99707.69
2022-09-23T02:44:06.396Z,99712.78
2022-09-23T02:44:19.930Z,99712.19
2022-09-23T02:44:32.927Z,99709.56
2022-09-23T02:44:44.812Z,99710.59
2022-09-23T02:44:56.834Z,99707.97
2022-09-23T02:45:09.019Z,99705.41
2022-09-23T02:45:20.990Z,99708.91
2022-09-23T02:45:33.866Z,99712.41
2022-09-23T02:45:47.303Z,99708.06
2022-09-23T02:46:00.359Z,99704.59
2022-09-23T02:46:12.443Z,99708.19
2022-09-23T02:46:24.508Z,99706.47
2022-09-23T02:46:37.033Z,99709.94
2022-09-23T02:46:52.242Z,99709.06
2022-09-23T02:47:04.234Z,99712.31
2022-09-23T02:47:20.447Z,99709.88
2022-09-23T02:47:35.824Z,99702.13
2022-09-23T02:47:53.252Z,99704.41
2022-09-23T02:48:14.643Z,99705.75
2022-09-23T02:48:32.350Z,99704.72
2022-09-23T02:49:12.478Z,99704.03
2022-09-23T02:49:29.658Z,99704.72
2022-09-23T02:49:41.568Z,99706.53
2022-09-23T02:49:56.229Z,99699.50
2022-09-23T02:50:09.406Z,99703.72
2022-09-23T02:50:22.539Z,99700.16
2022-09-23T02:50:34.728Z,99700.16
2022-09-23T02:50:47.697Z,99693.16
2022-09-23T02:51:02.218Z,99700.94
2022-09-23T02:51:14.639Z,99704.22
2022-09-23T02:51:28.841Z,99706.75
2022-09-23T02:51:41.483Z,99703.31
2022-09-23T02:51:54.491Z,99704.16
2022-09-23T02:52:07.511Z,99703.31
2022-09-23T02:52:19.441Z,99692.94
2022-09-23T02:52:32.545Z,99701.53
2022-09-23T02:52:46.276Z,99699.81
2022-09-23T02:52:58.881Z,99694.88
2022-09-23T02:53:10.788Z,99702.16
2022-09-23T02:53:23.991Z,99702.16
2022-09-23T02:53:36.556Z,99698.63
2022-09-23T02:53:48.605Z,99699.38
2022-09-23T02:54:03.393Z,99693.25
2022-09-23T02:54:20.283Z,99698.38
2022-09-23T02:54:33.801Z,99696.56
2022-09-23T02:54:45.772Z,99700.97
2022-09-23T02:54:58.100Z,99700.16
2022-09-23T02:55:13.024Z,99691.56
2022-09-23T02:55:31.231Z,99695.78
2022-09-23T02:55:43.496Z,99699.13
2022-09-23T02:55:55.355Z,99694.78
2022-09-23T02:56:16.068Z,99691.31
2022-09-23T02:56:28.657Z,99696.41
2022-09-23T02:56:41.073Z,99694.38
2022-09-23T02:56:53.383Z,99695.13
2022-09-23T02:57:07.694Z,99701.16
2022-09-23T02:57:19.735Z,99699.34
2022-09-23T02:57:32.162Z,99692.38
2022-09-23T02:57:45.260Z,99693.25
2022-09-23T02:58:01.391Z,99700.16
2022-09-23T02:58:14.175Z,99695.78
2022-09-23T02:58:26.243Z,99705.28
2022-09-23T02:58:38.160Z,99693.09
2022-09-23T02:58:52.958Z,99693.97
2022-09-23T02:59:06.052Z,99692.19
2022-09-23T02:59:20.220Z,99691.22
2022-09-23T02:59:34.051Z,99696.41
2022-09-23T02:59:46.671Z,99696.50
2022-09-23T02:59:58.599Z,99694.00
2022-09-23T03:00:11.267Z,99694.06
2022-09-23T03:00:23.765Z,99690.66
2022-09-23T03:01:06.040Z,99691.47
2022-09-23T03:01:31.381Z,99692.34
2022-09-23T03:01:49.145Z,99697.38
2022-09-23T03:02:06.917Z,99691.38
2022-09-23T03:02:33.951Z,99698.28
2022-09-23T03:03:08.266Z,99690.00
2022-09-23T03:03:33.974Z,99689.81
2022-09-23T03:04:05.043Z,99689.84
2022-09-23T03:04:50.746Z,99684.59
2022-09-23T03:05:19.236Z,99686.38
2022-09-23T03:05:37.989Z,99694.94
2022-09-23T03:05:55.212Z,99683.63
2022-09-23T03:06:36.789Z,99683.56
2022-09-23T03:06:54.434Z,99682.63
2022-09-23T03:07:24.304Z,99690.38
2022-09-23T03:08:02.840Z,99683.03
2022-09-23T03:09:18.827Z,99684.34
2022-09-23T03:09:43.123Z,99686.03
2022-09-23T03:10:21.816Z,99687.72
2022-09-23T03:10:58.305Z,99683.22
2022-09-23T03:11:13.387Z,99688.50
2022-09-23T03:11:26.143Z,99685.09
2022-09-23T03:11:42.737Z,99687.69
2022-09-23T03:12:16.402Z,99686.78
2022-09-23T03:12:42.323Z,99684.03
2022-09-23T03:13:26.153Z,99682.34
2022-09-23T03:14:16.813Z,99682.31
2022-09-23T03:14:49.234Z,99685.34
2022-09-23T03:15:10.053Z,99689.19
2022-09-23T03:15:33.331Z,99682.44
2022-09-23T03:16:06.087Z,99686.53
2022-09-23T03:16:34.640Z,99677.69
2022-09-23T03:17:03.490Z,99685.34
2022-09-23T03:17:29.427Z,99677.03
2022-09-23T03:18:08.165Z,99676.03
2022-09-23T03:18:42.081Z,99682.72
2022-09-23T03:19:19.726Z,99675.63
2022-09-23T03:19:46.272Z,99676.47
2022-09-23T03:20:15.333Z,99681.69
2022-09-23T03:20:34.185Z,99682.50
2022-09-23T03:21:03.105Z,99679.03
2022-09-23T03:21:25.009Z,99677.25
2022-09-23T03:21:55.289Z,99682.50
2022-09-23T03:22:35.484Z,99675.44
2022-09-23T03:22:54.526Z,99670.22
2022-09-23T03:23:10.553Z,99671.91
2022-09-23T03:23:31.283Z,99680.50
2022-09-23T03:23:45.180Z,99675.25
2022-09-23T03:24:00.549Z,99678.69
2022-09-23T03:24:14.776Z,99674.31
2022-09-23T03:24:31.170Z,99680.63
2022-09-23T03:24:45.516Z,99673.63
2022-09-23T03:25:05.883Z,99678.81
2022-09-23T03:25:24.123Z,99677.03
2022-09-23T03:25:40.146Z,99675.13
2022-09-23T03:25:55.496Z,99679.66
2022-09-23T03:26:13.564Z,99674.44
2022-09-23T03:26:31.408Z,99671.66
2022-09-23T03:26:47.032Z,99672.50
2022-09-23T03:27:03.233Z,99671.94
2022-09-23T03:27:20.026Z,99671.09
2022-09-23T03:27:34.671Z,99674.94
2022-09-23T03:27:46.575Z,99671.28
2022-09-23T03:28:01.168Z,99668.59
2022-09-23T03:28:16.481Z,99673.69
2022-09-23T03:28:28.973Z,99675.50
2022-09-23T03:28:44.298Z,99674.63
2022-09-23T03:28:56.564Z,99673.84
2022-09-23T03:29:11.733Z,99676.66
2022-09-23T03:29:24.236Z,99677.41
2022-09-23T03:29:36.921Z,99675.66
2022-09-23T03:29:51.614Z,99677.41
2022-09-23T03:30:06.784Z,99677.66
2022-09-23T03:30:19.048Z,99674.94
2022-09-23T03:30:37.152Z,99679.38
2022-09-23T03:30:54.252Z,99674.88
2022-09-23T03:31:06.192Z,99680.16
2022-09-23T03:31:18.331Z,99675.00
2022-09-23T03:31:32.289Z,99669.06
2022-09-23T03:31:44.925Z,99677.56
2022-09-23T03:31:57.984Z,99677.47
2022-09-23T03:32:10.129Z,99675.63
2022-09-23T03:32:26.739Z,99675.16
2022-09-23T03:32:42.740Z,99674.50
2022-09-23T03:32:57.028Z,99679.75
2022-09-23T03:33:12.408Z,99673.75
2022-09-23T03:33:28.793Z,99678.78
2022-09-23T03:33:47.034Z,99671.09
2022-09-23T03:34:01.837Z,99672.78
2022-09-23T03:34:21.361Z,99677.81
2022-09-23T03:34:35.317Z,99674.25
2022-09-23T03:34:50.591Z,99675.00
2022-09-23T03:35:04.836Z,99673.16
2022-09-23T03:35:17.172Z,99670.47
2022-09-23T03:35:32.654Z,99679.09
2022-09-23T03:36:12.487Z,99680.75
2022-09-23T03:36:49.979Z,99680.06
2022-09-23T03:37:14.131Z,99667.28
2022-09-23T03:37:32.350Z,99670.84